sensor_id;sensor_type;location;lat;lon;timestamp;pressure;altitude;pressure_sealevel;temperature;humidity
58295;BME280;45705;55.592;37.460;2023-04-05T00:01:41;99314.22;;;7.61;100.00
58295;BME280;45705;55.592;37.460;2023-04-05T00:04:07;99310.31;;;7.48;100.00
58295;BME280;45705;55.592;37.460;2023-04-05T00:06:33;99312.44;;;7.52;100.00
58295;BME280;45705;55.592;37.460;2023-04-05T00:09:00;99303.78;;;7.49;100.00
58295;BME280;45705;55.592;37.460;2023-04-05T00:11:33;99294.09;;;7.43;100.00
58295;BME280;45705;55.592;37.460;2023-04-05T00:13:59;99305.47;;;7.40;100.00
58295;BME280;45705;55.592;37.460;2023-04-05T00:16:26;99300.00;;;7.51;100.00
58295;BME280;45705;55.592;37.460;2023-04-05T00:18:54;99294.59;;;7.51;100.00
58295;BME280;45705;55.592;37.460;2023-04-05T00:21:21;99300.81;;;7.51;100.00
58295;BME280;45705;55.592;37.460;2023-04-05T00:23:52;99292.72;;;7.46;100.00
58295;BME280;45705;55.592;37.460;2023-04-05T00:26:19;99302.19;;;7.48;100.00
58295;BME280;45705;55.592;37.460;2023-04-05T00:28:50;99302.25;;;7.38;100.00
58295;BME280;45705;55.592;37.460;2023-04-05T00:31:16;99305.56;;;7.30;100.00
58295;BME280;45705;55.592;37.460;2023-04-05T00:33:42;99305.03;;;7.33;100.00
58295;BME280;45705;55.592;37.460;2023-04-05T00:36:15;99301.78;;;7.31;100.00
58295;BME280;45705;55.592;37.460;2023-04-05T00:38:43;99298.56;;;7.29;100.00
58295;BME280;45705;55.592;37.460;2023-04-05T00:41:10;99301.28;;;7.24;100.00
58295;BME280;45705;55.592;37.460;2023-04-05T00:43:36;99309.94;;;7.26;100.00
58295;BME280;45705;55.592;37.460;2023-04-05T00:46:03;99301.53;;;7.27;100.00
58295;BME280;45705;55.592;37.460;2023-04-05T00:48:29;99312.09;;;7.29;100.00
58295;BME280;45705;55.592;37.460;2023-04-05T00:50:56;99318.06;;;7.21;100.00
58295;BME280;45705;55.592;37.460;2023-04-05T00:53:22;99309.94;;;7.26;100.00
58295;BME280;45705;55.592;37.460;2023-04-05T00:55:49;99316.13;;;7.26;100.00
58295;BME280;45705;55.592;37.460;2023-04-05T00:58:19;99313.16;;;7.28;100.00
58295;BME280;45705;55.592;37.460;2023-04-05T01:00:59;99320.78;;;7.21;100.00
58295;BME280;45705;55.592;37.460;2023-04-05T01:03:28;99324.00;;;7.23;100.00
58295;BME280;45705;55.592;37.460;2023-04-05T01:06:16;99320.59;;;7.12;100.00
58295;BME280;45705;55.592;37.460;2023-04-05T01:11:41;99329.47;;;7.18;100.00
58295;BME280;45705;55.592;37.460;2023-04-05T01:14:09;99320.34;;;7.08;100.00
58295;BME280;45705;55.592;37.460;2023-04-05T01:16:35;99313.91;;;6.99;100.00
58295;BME280;45705;55.592;37.460;2023-04-05T01:19:01;99323.06;;;7.03;100.00
58295;BME280;45705;55.592;37.460;2023-04-05T01:27:06;99321.03;;;6.85;100.00
58295;BME280;45705;55.592;37.460;2023-04-05T01:30:17;99313.44;;;6.92;100.00
58295;BME280;45705;55.592;37.460;2023-04-05T01:35:54;99321.56;;;6.82;100.00
58295;BME280;45705;55.592;37.460;2023-04-05T01:38:24;99328.59;;;6.83;100.00
58295;BME280;45705;55.592;37.460;2023-04-05T01:40:52;99327.50;;;6.84;100.00
58295;BME280;45705;55.592;37.460;2023-04-05T01:43:18;99323.69;;;6.90;100.00
58295;BME280;45705;55.592;37.460;2023-04-05T01:45:44;99324.75;;;6.94;100.00
58295;BME280;45705;55.592;37.460;2023-04-05T01:48:11;99312.38;;;6.83;100.00
58295;BME280;45705;55.592;37.460;2023-04-05T01:50:37;99306.22;;;6.72;100.00
58295;BME280;45705;55.592;37.460;2023-04-05T01:53:03;99310.56;;;6.68;100.00
58295;BME280;45705;55.592;37.460;2023-04-05T01:55:28;99315.97;;;6.68;100.00
58295;BME280;45705;55.592;37.460;2023-04-05T01:57:55;99315.69;;;6.75;100.00
58295;BME280;45705;55.592;37.460;2023-04-05T02:00:21;99311.38;;;6.68;100.00
58295;BME280;45705;55.592;37.460;2023-04-05T02:02:47;99330.34;;;6.63;100.00
58295;BME280;45705;55.592;37.460;2023-04-05T02:05:13;99335.22;;;6.61;100.00
58295;BME280;45705;55.592;37.460;2023-04-05T02:07:40;99337.66;;;6.58;100.00
58295;BME280;45705;55.592;37.460;2023-04-05T02:10:09;99323.28;;;6.62;100.00
58295;BME280;45705;55.592;37.460;2023-04-05T02:12:35;99332.50;;;6.61;100.00
58295;BME280;45705;55.592;37.460;2023-04-05T02:15:00;99329.75;;;6.66;100.00
58295;BME280;45705;55.592;37.460;2023-04-05T02:17:26;99331.94;;;6.64;100.00
58295;BME280;45705;55.592;37.460;2023-04-05T02:19:59;99333.03;;;6.58;100.00
58295;BME280;45705;55.592;37.460;2023-04-05T02:22:27;99332.53;;;6.51;100.00
58295;BME280;45705;55.592;37.460;2023-04-05T02:24:55;99338.50;;;6.48;100.00
58295;BME280;45705;55.592;37.460;2023-04-05T02:27:21;99339.84;;;6.45;100.00
58295;BME280;45705;55.592;37.460;2023-04-05T02:29:47;99333.38;;;6.41;100.00
58295;BME280;45705;55.592;37.460;2023-04-05T02:32:13;99341.22;;;6.38;100.00
58295;BME280;45705;55.592;37.460;2023-04-05T02:34:39;99332.56;;;6.41;100.00
58295;BME280;45705;55.592;37.460;2023-04-05T02:37:06;99337.44;;;6.44;100.00
58295;BME280;45705;55.592;37.460;2023-04-05T02:39:32;99345.56;;;6.39;100.00
58295;BME280;45705;55.592;37.460;2023-04-05T02:41:57;99346.09;;;6.41;100.00
58295;BME280;45705;55.592;37.460;2023-04-05T02:44:24;99345.03;;;6.37;100.00
58295;BME280;45705;55.592;37.460;2023-04-05T02:46:52;99355.81;;;6.42;100.00
58295;BME280;45705;55.592;37.460;2023-04-05T02:49:19;99351.47;;;6.41;100.00
58295;BME280;45705;55.592;37.460;2023-04-05T02:51:45;99351.47;;;6.46;100.00
58295;BME280;45705;55.592;37.460;2023-04-05T02:54:11;99352.31;;;6.36;100.00
58295;BME280;45705;55.592;37.460;2023-04-05T02:56:38;99352.00;;;6.48;100.00
58295;BME280;45705;55.592;37.460;2023-04-05T02:59:09;99359.53;;;6.51;100.00
58295;BME280;45705;55.592;37.460;2023-04-05T03:01:36;99358.47;;;6.52;100.00
58295;BME280;45705;55.592;37.460;2023-04-05T03:04:03;99364.41;;;6.59;100.00
58295;BME280;45705;55.592;37.460;2023-04-05T03:06:30;99366.78;;;6.66;100.00
58295;BME280;45705;55.592;37.460;2023-04-05T03:08:57;99366.00;;;6.60;100.00
58295;BME280;45705;55.592;37.460;2023-04-05T03:11:24;99364.88;;;6.66;100.00
58295;BME280;45705;55.592;37.460;2023-04-05T03:13:56;99358.88;;;6.85;100.00
58295;BME280;45705;55.592;37.460;2023-04-05T03:16:34;99371.97;;;6.52;100.00
58295;BME280;45705;55.592;37.460;2023-04-05T03:19:07;99369.31;;;6.42;100.00
58295;BME280;45705;55.592;37.460;2023-04-05T03:21:36;99373.84;;;6.57;100.00
58295;BME280;45705;55.592;37.460;2023-04-05T03:24:09;99371.50;;;6.40;100.00
58295;BME280;45705;55.592;37.460;2023-04-05T03:26:39;99371.72;;;6.48;100.00
58295;BME280;45705;55.592;37.460;2023-04-05T03:29:05;99374.09;;;6.60;100.00
58295;BME280;45705;55.592;37.460;2023-04-05T03:31:35;99378.13;;;6.63;100.00
58295;BME280;45705;55.592;37.460;2023-04-05T03:34:06;99381.09;;;6.72;100.00
58295;BME280;45705;55.592;37.460;2023-04-05T03:36:40;99381.00;;;6.87;100.00
58295;BME280;45705;55.592;37.460;2023-04-05T03:39:23;99383.66;;;6.97;100.00
58295;BME280;45705;55.592;37.460;2023-04-05T03:41:49;99382.97;;;7.21;100.00
58295;BME280;45705;55.592;37.460;2023-04-05T03:44:15;99385.13;;;7.24;100.00
58295;BME280;45705;55.592;37.460;2023-04-05T03:46:42;99382.06;;;7.41;100.00
58295;BME280;45705;55.592;37.460;2023-04-05T03:49:08;99376.72;;;7.65;100.00
58295;BME280;45705;55.592;37.460;2023-04-05T03:51:34;99379.63;;;8.56;100.00
58295;BME280;45705;55.592;37.460;2023-04-05T03:53:59;99382.25;;;9.61;98.75
58295;BME280;45705;55.592;37.460;2023-04-05T03:56:29;99382.78;;;10.43;90.25
58295;BME280;45705;55.592;37.460;2023-04-05T03:58:57;99380.94;;;10.66;85.89
58295;BME280;45705;55.592;37.460;2023-04-05T04:01:26;99384.53;;;10.89;82.35
58295;BME280;45705;55.592;37.460;2023-04-05T04:03:52;99379.47;;;11.47;80.27
58295;BME280;45705;55.592;37.460;2023-04-05T04:06:18;99375.84;;;12.28;73.51
58295;BME280;45705;55.592;37.460;2023-04-05T04:08:44;99375.69;;;12.90;70.02
58295;BME280;45705;55.592;37.460;2023-04-05T04:11:09;99373.78;;;14.04;63.98
58295;BME280;45705;55.592;37.460;2023-04-05T04:13:38;99381.44;;;14.96;58.30
58295;BME280;45705;55.592;37.460;2023-04-05T04:16:22;99383.84;;;15.19;57.18
58295;BME280;45705;55.592;37.460;2023-04-05T04:19:23;99385.31;;;15.80;53.92
58295;BME280;45705;55.592;37.460;2023-04-05T04:22:09;99391.72;;;15.84;52.94
58295;BME280;45705;55.592;37.460;2023-04-05T04:24:40;99389.91;;;15.33;54.15
58295;BME280;45705;55.592;37.460;2023-04-05T04:27:33;99387.69;;;16.02;51.40
58295;BME280;45705;55.592;37.460;2023-04-05T04:30:10;99393.22;;;15.81;52.32
58295;BME280;45705;55.592;37.460;2023-04-05T04:32:55;99390.63;;;16.67;48.47
58295;BME280;45705;55.592;37.460;2023-04-05T04:35:29;99396.41;;;15.83;51.37
58295;BME280;45705;55.592;37.460;2023-04-05T04:38:20;99399.50;;;15.40;49.81
58295;BME280;45705;55.592;37.460;2023-04-05T04:41:07;99407.97;;;15.05;53.72
58295;BME280;45705;55.592;37.460;2023-04-05T04:43:41;99404.03;;;13.82;56.75
58295;BME280;45705;55.592;37.460;2023-04-05T04:46:15;99406.34;;;14.35;55.82
58295;BME280;45705;55.592;37.460;2023-04-05T04:49:00;99410.13;;;11.97;64.38
58295;BME280;45705;55.592;37.460;2023-04-05T04:51:33;99417.34;;;11.57;66.68
58295;BME280;45705;55.592;37.460;2023-04-05T04:54:01;99415.34;;;11.12;69.38
58295;BME280;45705;55.592;37.460;2023-04-05T04:56:27;99412.03;;;12.59;64.82
58295;BME280;45705;55.592;37.460;2023-04-05T04:58:55;99412.25;;;12.72;63.38
58295;BME280;45705;55.592;37.460;2023-04-05T05:01:21;99407.25;;;13.31;60.62
58295;BME280;45705;55.592;37.460;2023-04-05T05:03:52;99421.59;;;12.39;62.55
58295;BME280;45705;55.592;37.460;2023-04-05T05:06:25;99419.97;;;12.07;65.96
58295;BME280;45705;55.592;37.460;2023-04-05T05:08:51;99423.13;;;13.29;60.65
58295;BME280;45705;55.592;37.460;2023-04-05T05:11:17;99421.06;;;13.26;60.03
58295;BME280;45705;55.592;37.460;2023-04-05T05:13:43;99422.75;;;12.47;63.82
58295;BME280;45705;55.592;37.460;2023-04-05T05:16:16;99433.84;;;11.97;64.03
58295;BME280;45705;55.592;37.460;2023-04-05T05:18:42;99433.22;;;12.23;63.76
58295;BME280;45705;55.592;37.460;2023-04-05T05:21:10;99431.06;;;12.82;61.32
58295;BME280;45705;55.592;37.460;2023-04-05T05:23:36;99430.41;;;13.77;58.55
58295;BME280;45705;55.592;37.460;2023-04-05T05:26:02;99425.16;;;14.37;55.11
58295;BME280;45705;55.592;37.460;2023-04-05T05:28:28;99430.69;;;14.75;53.23
58295;BME280;45705;55.592;37.460;2023-04-05T05:30:54;99433.31;;;15.23;50.46
58295;BME280;45705;55.592;37.460;2023-04-05T05:33:20;99423.44;;;15.51;48.63
58295;BME280;45705;55.592;37.460;2023-04-05T05:35:49;99419.19;;;14.82;49.70
58295;BME280;45705;55.592;37.460;2023-04-05T05:38:17;99437.72;;;15.36;48.56
58295;BME280;45705;55.592;37.460;2023-04-05T05:40:43;99428.38;;;16.12;46.07
58295;BME280;45705;55.592;37.460;2023-04-05T05:43:09;99438.41;;;15.96;45.58
58295;BME280;45705;55.592;37.460;2023-04-05T05:45:35;99441.19;;;15.66;46.80
58295;BME280;45705;55.592;37.460;2023-04-05T05:48:01;99440.88;;;15.89;46.08
58295;BME280;45705;55.592;37.460;2023-04-05T05:50:27;99430.34;;;14.21;48.92
58295;BME280;45705;55.592;37.460;2023-04-05T05:53:00;99438.50;;;14.38;49.10
58295;BME280;45705;55.592;37.460;2023-04-05T05:55:25;99427.72;;;15.61;46.84
58295;BME280;45705;55.592;37.460;2023-04-05T05:57:51;99437.19;;;16.76;42.96
58295;BME280;45705;55.592;37.460;2023-04-05T06:00:18;99426.78;;;17.19;42.31
58295;BME280;45705;55.592;37.460;2023-04-05T06:02:44;99432.25;;;17.84;41.22
58295;BME280;45705;55.592;37.460;2023-04-05T06:05:11;99424.19;;;18.35;40.25
58295;BME280;45705;55.592;37.460;2023-04-05T06:07:37;99446.28;;;17.66;40.65
58295;BME280;45705;55.592;37.460;2023-04-05T06:10:06;99440.81;;;17.42;42.08
58295;BME280;45705;55.592;37.460;2023-04-05T06:12:33;99441.72;;;17.46;42.40
58295;BME280;45705;55.592;37.460;2023-04-05T06:15:00;99440.72;;;18.35;40.42
58295;BME280;45705;55.592;37.460;2023-04-05T06:17:25;99439.00;;;18.15;40.40
58295;BME280;45705;55.592;37.460;2023-04-05T06:19:51;99438.19;;;18.14;40.63
58295;BME280;45705;55.592;37.460;2023-04-05T06:22:17;99446.16;;;18.03;40.64
58295;BME280;45705;55.592;37.460;2023-04-05T06:24:43;99443.31;;;18.00;39.36
58295;BME280;45705;55.592;37.460;2023-04-05T06:27:08;99444.09;;;18.28;39.07
58295;BME280;45705;55.592;37.460;2023-04-05T06:29:34;99447.56;;;17.97;39.13
58295;BME280;45705;55.592;37.460;2023-04-05T06:32:00;99459.97;;;17.79;39.66
58295;BME280;45705;55.592;37.460;2023-04-05T06:34:25;99447.84;;;18.08;39.23
58295;BME280;45705;55.592;37.460;2023-04-05T06:36:51;99458.88;;;18.24;39.57
58295;BME280;45705;55.592;37.460;2023-04-05T06:39:17;99474.00;;;16.50;42.02
58295;BME280;45705;55.592;37.460;2023-04-05T06:41:43;99480.53;;;15.70;44.58
58295;BME280;45705;55.592;37.460;2023-04-05T06:44:09;99478.84;;;15.06;46.43
58295;BME280;45705;55.592;37.460;2023-04-05T06:46:34;99476.81;;;15.75;45.20
58295;BME280;45705;55.592;37.460;2023-04-05T06:49:00;99469.72;;;16.99;42.51
58295;BME280;45705;55.592;37.460;2023-04-05T06:51:26;99475.50;;;15.01;46.65
58295;BME280;45705;55.592;37.460;2023-04-05T06:53:54;99479.59;;;13.95;50.68
58295;BME280;45705;55.592;37.460;2023-04-05T06:56:20;99465.09;;;14.85;48.45
58295;BME280;45705;55.592;37.460;2023-04-05T06:58:46;99468.94;;;14.37;48.42
58295;BME280;45705;55.592;37.460;2023-04-05T07:01:12;99474.50;;;14.49;49.35
58295;BME280;45705;55.592;37.460;2023-04-05T07:03:37;99478.09;;;14.32;50.14
58295;BME280;45705;55.592;37.460;2023-04-05T07:06:03;99480.97;;;15.01;47.73
58295;BME280;45705;55.592;37.460;2023-04-05T07:08:31;99490.06;;;13.84;51.02
58295;BME280;45705;55.592;37.460;2023-04-05T07:10:57;99484.97;;;13.25;52.93
58295;BME280;45705;55.592;37.460;2023-04-05T07:13:23;99488.94;;;13.59;53.50
58295;BME280;45705;55.592;37.460;2023-04-05T07:15:50;99484.72;;;13.70;52.66
58295;BME280;45705;55.592;37.460;2023-04-05T07:18:17;99493.47;;;12.44;56.95
58295;BME280;45705;55.592;37.460;2023-04-05T07:20:46;99474.13;;;13.60;54.94
58295;BME280;45705;55.592;37.460;2023-04-05T07:23:13;99474.53;;;14.96;48.65
58295;BME280;45705;55.592;37.460;2023-04-05T07:25:39;99478.88;;;14.98;48.11
58295;BME280;45705;55.592;37.460;2023-04-05T07:28:06;99472.31;;;15.20;47.54
58295;BME280;45705;55.592;37.460;2023-04-05T07:30:31;99478.44;;;15.67;46.51
58295;BME280;45705;55.592;37.460;2023-04-05T07:32:57;99478.97;;;15.10;47.50
58295;BME280;45705;55.592;37.460;2023-04-05T07:35:23;99483.72;;;15.01;48.47
58295;BME280;45705;55.592;37.460;2023-04-05T07:37:50;99502.38;;;14.34;49.22
58295;BME280;45705;55.592;37.460;2023-04-05T07:40:16;99494.06;;;13.87;52.38
58295;BME280;45705;55.592;37.460;2023-04-05T07:42:42;99494.88;;;13.96;51.51
58295;BME280;45705;55.592;37.460;2023-04-05T07:45:09;99496.31;;;13.01;56.41
58295;BME280;45705;55.592;37.460;2023-04-05T07:47:34;99489.91;;;14.80;50.11
58295;BME280;45705;55.592;37.460;2023-04-05T07:50:00;99490.19;;;14.05;51.08
58295;BME280;45705;55.592;37.460;2023-04-05T07:52:26;99489.72;;;14.03;52.51
58295;BME280;45705;55.592;37.460;2023-04-05T07:54:52;99489.22;;;13.00;54.19
58295;BME280;45705;55.592;37.460;2023-04-05T07:57:19;99489.47;;;12.81;55.80
58295;BME280;45705;55.592;37.460;2023-04-05T07:59:45;99486.19;;;13.02;54.23
58295;BME280;45705;55.592;37.460;2023-04-05T08:02:12;99501.34;;;12.76;54.44
58295;BME280;45705;55.592;37.460;2023-04-05T08:04:38;99503.75;;;12.01;57.05
58295;BME280;45705;55.592;37.460;2023-04-05T08:07:03;99496.78;;;12.32;57.17
58295;BME280;45705;55.592;37.460;2023-04-05T08:09:29;99494.72;;;13.09;54.62
58295;BME280;45705;55.592;37.460;2023-04-05T08:11:55;99494.28;;;12.44;57.12
58295;BME280;45705;55.592;37.460;2023-04-05T08:14:22;99493.06;;;12.59;56.33
58295;BME280;45705;55.592;37.460;2023-04-05T08:16:48;99488.50;;;13.17;55.39
58295;BME280;45705;55.592;37.460;2023-04-05T08:19:15;99492.75;;;13.41;53.42
58295;BME280;45705;55.592;37.460;2023-04-05T08:21:41;99480.47;;;13.20;54.47
58295;BME280;45705;55.592;37.460;2023-04-05T08:24:07;99514.00;;;12.18;58.17
58295;BME280;45705;55.592;37.460;2023-04-05T08:26:32;99515.47;;;12.25;58.62
58295;BME280;45705;55.592;37.460;2023-04-05T08:28:58;99518.94;;;11.94;59.38
58295;BME280;45705;55.592;37.460;2023-04-05T08:31:24;99508.50;;;11.73;60.84
58295;BME280;45705;55.592;37.460;2023-04-05T08:33:50;99519.75;;;11.80;60.75
58295;BME280;45705;55.592;37.460;2023-04-05T08:36:15;99513.06;;;12.00;59.79
58295;BME280;45705;55.592;37.460;2023-04-05T08:38:41;99509.28;;;12.10;60.23
58295;BME280;45705;55.592;37.460;2023-04-05T08:41:07;99497.13;;;13.02;57.69
58295;BME280;45705;55.592;37.460;2023-04-05T08:44:00;99503.69;;;12.60;57.18
58295;BME280;45705;55.592;37.460;2023-04-05T08:46:31;99492.00;;;13.75;53.95
58295;BME280;45705;55.592;37.460;2023-04-05T08:48:58;99496.13;;;12.97;56.18
58295;BME280;45705;55.592;37.460;2023-04-05T08:51:24;99488.59;;;14.04;52.94
58295;BME280;45705;55.592;37.460;2023-04-05T08:53:52;99497.66;;;13.21;54.06
58295;BME280;45705;55.592;37.460;2023-04-05T08:56:40;99477.16;;;12.84;55.54
58295;BME280;45705;55.592;37.460;2023-04-05T08:59:06;99499.19;;;13.45;54.76
58295;BME280;45705;55.592;37.460;2023-04-05T09:01:36;99508.78;;;13.33;53.65
58295;BME280;45705;55.592;37.460;2023-04-05T09:04:08;99503.59;;;12.74;55.74
58295;BME280;45705;55.592;37.460;2023-04-05T09:06:36;99513.94;;;12.64;57.13
58295;BME280;45705;55.592;37.460;2023-04-05T09:09:05;99500.13;;;12.91;57.26
58295;BME280;45705;55.592;37.460;2023-04-05T09:11:33;99497.22;;;12.88;56.78
58295;BME280;45705;55.592;37.460;2023-04-05T09:14:02;99505.28;;;13.42;55.04
58295;BME280;45705;55.592;37.460;2023-04-05T09:16:28;99497.75;;;13.82;53.56
58295;BME280;45705;55.592;37.460;2023-04-05T09:18:54;99503.09;;;13.78;53.09
58295;BME280;45705;55.592;37.460;2023-04-05T09:21:19;99499.19;;;14.32;51.25
58295;BME280;45705;55.592;37.460;2023-04-05T09:23:52;99497.75;;;13.99;50.83
58295;BME280;45705;55.592;37.460;2023-04-05T09:26:19;99497.16;;;13.19;55.37
58295;BME280;45705;55.592;37.460;2023-04-05T09:28:51;99487.94;;;13.90;52.74
58295;BME280;45705;55.592;37.460;2023-04-05T09:31:34;99491.16;;;13.92;52.81
58295;BME280;45705;55.592;37.460;2023-04-05T09:34:03;99493.06;;;13.30;52.77
58295;BME280;45705;55.592;37.460;2023-04-05T09:36:32;99493.41;;;13.90;52.73
58295;BME280;45705;55.592;37.460;2023-04-05T09:39:05;99499.47;;;12.94;54.97
58295;BME280;45705;55.592;37.460;2023-04-05T09:41:33;99493.25;;;13.03;55.88
58295;BME280;45705;55.592;37.460;2023-04-05T09:43:59;99492.97;;;13.13;55.24
58295;BME280;45705;55.592;37.460;2023-04-05T09:46:34;99493.91;;;12.99;56.17
58295;BME280;45705;55.592;37.460;2023-04-05T09:49:02;99503.59;;;12.83;56.42
58295;BME280;45705;55.592;37.460;2023-04-05T09:51:35;99494.56;;;13.14;55.95
58295;BME280;45705;55.592;37.460;2023-04-05T09:54:05;99496.94;;;13.64;54.32
58295;BME280;45705;55.592;37.460;2023-04-05T09:56:33;99494.22;;;14.08;52.60
58295;BME280;45705;55.592;37.460;2023-04-05T09:59:07;99494.41;;;13.76;52.64
58295;BME280;45705;55.592;37.460;2023-04-05T10:01:38;99509.00;;;13.06;55.37
58295;BME280;45705;55.592;37.460;2023-04-05T10:04:07;99489.75;;;12.62;56.62
58295;BME280;45705;55.592;37.460;2023-04-05T10:06:41;99492.50;;;13.11;55.92
58295;BME280;45705;55.592;37.460;2023-04-05T10:09:09;99485.72;;;13.08;56.49
58295;BME280;45705;55.592;37.460;2023-04-05T10:11:36;99496.75;;;13.43;56.39
58295;BME280;45705;55.592;37.460;2023-04-05T10:14:04;99493.97;;;13.26;56.64
58295;BME280;45705;55.592;37.460;2023-04-05T10:17:12;99491.81;;;13.71;54.15
58295;BME280;45705;55.592;37.460;2023-04-05T10:19:49;99488.44;;;13.74;53.55
58295;BME280;45705;55.592;37.460;2023-04-05T10:22:22;99485.38;;;13.93;53.82
58295;BME280;45705;55.592;37.460;2023-04-05T10:24:58;99502.06;;;13.57;54.01
58295;BME280;45705;55.592;37.460;2023-04-05T10:27:36;99499.06;;;13.10;56.88
58295;BME280;45705;55.592;37.460;2023-04-05T10:30:07;99494.19;;;13.38;56.89
58295;BME280;45705;55.592;37.460;2023-04-05T10:32:45;99494.50;;;12.96;57.42
58295;BME280;45705;55.592;37.460;2023-04-05T10:35:19;99483.72;;;13.31;56.65
58295;BME280;45705;55.592;37.460;2023-04-05T10:40:33;99484.25;;;13.86;55.00
58295;BME280;45705;55.592;37.460;2023-04-05T10:43:02;99479.19;;;14.49;52.99
58295;BME280;45705;55.592;37.460;2023-04-05T10:45:30;99499.53;;;13.69;54.44
58295;BME280;45705;55.592;37.460;2023-04-05T10:48:14;99498.22;;;13.58;56.33
58295;BME280;45705;55.592;37.460;2023-04-05T10:50:41;99491.59;;;13.33;57.10
58295;BME280;45705;55.592;37.460;2023-04-05T10:53:08;99486.00;;;13.47;57.52
58295;BME280;45705;55.592;37.460;2023-04-05T10:55:35;99486.00;;;14.16;55.25
58295;BME280;45705;55.592;37.460;2023-04-05T10:58:01;99482.88;;;14.44;53.36
58295;BME280;45705;55.592;37.460;2023-04-05T11:00:28;99485.69;;;13.74;55.86
58295;BME280;45705;55.592;37.460;2023-04-05T11:02:54;99483.16;;;13.87;55.91
58295;BME280;45705;55.592;37.460;2023-04-05T11:05:34;99483.44;;;13.42;56.54
58295;BME280;45705;55.592;37.460;2023-04-05T11:08:04;99485.38;;;13.58;56.88
58295;BME280;45705;55.592;37.460;2023-04-05T11:10:31;99493.47;;;13.24;58.32
58295;BME280;45705;55.592;37.460;2023-04-05T11:23:10;99466.31;;;14.49;52.55
58295;BME280;45705;55.592;37.460;2023-04-05T11:25:37;99473.97;;;13.65;55.98
58295;BME280;45705;55.592;37.460;2023-04-05T11:28:06;99479.28;;;13.70;55.21
58295;BME280;45705;55.592;37.460;2023-04-05T11:36:01;99463.34;;;14.07;55.70
58295;BME280;45705;55.592;37.460;2023-04-05T11:38:27;99455.44;;;14.14;55.18
58295;BME280;45705;55.592;37.460;2023-04-05T11:41:04;99460.88;;;14.32;54.59
58295;BME280;45705;55.592;37.460;2023-04-05T11:43:31;99470.28;;;13.61;55.58
58295;BME280;45705;55.592;37.460;2023-04-05T11:46:01;99461.25;;;14.04;55.50
58295;BME280;45705;55.592;37.460;2023-04-05T11:48:28;99455.94;;;14.16;53.99
58295;BME280;45705;55.592;37.460;2023-04-05T11:50:55;99446.94;;;14.16;53.56
58295;BME280;45705;55.592;37.460;2023-04-05T11:53:21;99456.88;;;14.21;53.81
58295;BME280;45705;55.592;37.460;2023-04-05T11:55:49;99454.38;;;13.63;54.48
58295;BME280;45705;55.592;37.460;2023-04-05T11:58:17;99455.31;;;13.93;53.82
58295;BME280;45705;55.592;37.460;2023-04-05T12:00:45;99446.66;;;13.65;54.68
58295;BME280;45705;55.592;37.460;2023-04-05T12:03:14;99452.59;;;14.02;54.17
58295;BME280;45705;55.592;37.460;2023-04-05T12:06:00;99448.25;;;13.57;55.17
58295;BME280;45705;55.592;37.460;2023-04-05T12:08:43;99448.91;;;13.63;54.99
58295;BME280;45705;55.592;37.460;2023-04-05T12:11:25;99445.66;;;14.05;53.75
58295;BME280;45705;55.592;37.460;2023-04-05T12:13:56;99441.66;;;13.85;54.91
58295;BME280;45705;55.592;37.460;2023-04-05T12:16:23;99450.69;;;13.76;55.23
58295;BME280;45705;55.592;37.460;2023-04-05T12:18:56;99451.66;;;13.63;55.47
58295;BME280;45705;55.592;37.460;2023-04-05T12:21:23;99448.72;;;13.33;56.33
58295;BME280;45705;55.592;37.460;2023-04-05T12:23:51;99458.84;;;13.50;56.46
58295;BME280;45705;55.592;37.460;2023-04-05T12:26:16;99462.25;;;12.98;58.50
58295;BME280;45705;55.592;37.460;2023-04-05T12:28:56;99452.03;;;13.13;58.61
58295;BME280;45705;55.592;37.460;2023-04-05T12:34:04;99444.72;;;13.83;55.70
58295;BME280;45705;55.592;37.460;2023-04-05T12:36:30;99447.63;;;13.87;55.95
58295;BME280;45705;55.592;37.460;2023-04-05T12:38:57;99444.50;;;14.14;55.56
58295;BME280;45705;55.592;37.460;2023-04-05T12:41:29;99451.13;;;14.13;54.87
58295;BME280;45705;55.592;37.460;2023-04-05T12:43:56;99447.44;;;13.92;56.12
58295;BME280;45705;55.592;37.460;2023-04-05T12:49:11;99444.88;;;13.52;59.49
58295;BME280;45705;55.592;37.460;2023-04-05T12:51:43;99437.81;;;13.68;58.34
58295;BME280;45705;55.592;37.460;2023-04-05T12:54:14;99450.53;;;13.73;58.03
58295;BME280;45705;55.592;37.460;2023-04-05T12:56:40;99446.31;;;13.41;58.33
58295;BME280;45705;55.592;37.460;2023-04-05T12:59:06;99451.38;;;13.16;60.48
58295;BME280;45705;55.592;37.460;2023-04-05T13:01:33;99453.75;;;12.91;59.41
58295;BME280;45705;55.592;37.460;2023-04-05T13:03:59;99448.66;;;13.16;59.58
58295;BME280;45705;55.592;37.460;2023-04-05T13:06:30;99449.69;;;12.80;60.10
58295;BME280;45705;55.592;37.460;2023-04-05T13:08:58;99444.47;;;13.10;59.91
58295;BME280;45705;55.592;37.460;2023-04-05T13:11:24;99446.56;;;13.22;59.48
58295;BME280;45705;55.592;37.460;2023-04-05T13:13:50;99442.63;;;13.45;59.10
58295;BME280;45705;55.592;37.460;2023-04-05T13:16:15;99449.38;;;13.48;58.96
58295;BME280;45705;55.592;37.460;2023-04-05T13:18:41;99443.25;;;13.86;57.44
58295;BME280;45705;55.592;37.460;2023-04-05T13:21:07;99444.88;;;13.52;57.29
58295;BME280;45705;55.592;37.460;2023-04-05T13:23:35;99425.53;;;13.22;57.94
58295;BME280;45705;55.592;37.460;2023-04-05T13:26:01;99447.59;;;13.43;57.58
58295;BME280;45705;55.592;37.460;2023-04-05T13:28:27;99450.09;;;13.22;58.36
58295;BME280;45705;55.592;37.460;2023-04-05T13:30:53;99450.91;;;13.14;58.52
58295;BME280;45705;55.592;37.460;2023-04-05T13:33:19;99452.59;;;12.92;59.50
58295;BME280;45705;55.592;37.460;2023-04-05T13:35:45;99437.69;;;12.98;60.03